createdAt,value
2023-04-07T00:00:45.034Z,100.00
2023-04-07T00:03:14.873Z,100.00
2023-04-07T00:05:44.149Z,100.00
2023-04-07T00:08:12.625Z,100.00
2023-04-07T00:10:40.810Z,100.00
2023-04-07T00:13:10.397Z,100.00
2023-04-07T00:15:38.714Z,100.00
2023-04-07T00:18:07.241Z,100.00
2023-04-07T00:20:35.830Z,100.00
2023-04-07T00:23:03.923Z,100.00
2023-04-07T00:25:33.351Z,100.00
2023-04-07T00:28:01.816Z,100.00
2023-04-07T00:30:37.005Z,100.00
2023-04-07T00:33:05.890Z,100.00
2023-04-07T00:35:38.313Z,100.00
2023-04-07T00:38:07.254Z,100.00
2023-04-07T00:40:36.892Z,100.00
2023-04-07T00:43:07.262Z,100.00
2023-04-07T00:45:36.854Z,100.00
2023-04-07T00:48:05.682Z,100.00
2023-04-07T00:50:34.518Z,100.00
2023-04-07T00:53:02.783Z,100.00
2023-04-07T00:55:31.062Z,100.00
2023-04-07T00:57:59.486Z,100.00
2023-04-07T01:00:27.861Z,100.00
2023-04-07T01:03:02.317Z,100.00
2023-04-07T01:05:41.411Z,100.00
2023-04-07T01:08:12.722Z,100.00
2023-04-07T01:10:52.705Z,100.00
2023-04-07T01:13:29.376Z,100.00
2023-04-07T01:16:10.167Z,100.00
2023-04-07T01:18:43.649Z,100.00
2023-04-07T01:21:16.798Z,100.00
2023-04-07T01:24:15.664Z,100.00
2023-04-07T01:26:44.682Z,100.00
2023-04-07T01:29:31.460Z,100.00
2023-04-07T01:34:30.873Z,100.00
2023-04-07T01:36:59.771Z,100.00
2023-04-07T01:39:28.337Z,100.00
2023-04-07T01:41:56.513Z,100.00
2023-04-07T01:44:24.995Z,100.00
2023-04-07T01:46:54.240Z,100.00
2023-04-07T01:49:22.726Z,100.00
2023-04-07T01:51:50.900Z,100.00
2023-04-07T01:54:19.252Z,100.00
2023-04-07T01:56:48.305Z,100.00
2023-04-07T01:59:17.774Z,100.00
2023-04-07T02:01:46.691Z,100.00
2023-04-07T02:04:26.283Z,100.00
2023-04-07T02:07:04.194Z,100.00
2023-04-07T02:09:38.832Z,100.00
2023-04-07T02:12:09.147Z,100.00
2023-04-07T02:14:40.082Z,100.00
2023-04-07T02:17:11.115Z,100.00
2023-04-07T02:19:42.174Z,100.00
2023-04-07T02:22:11.328Z,100.00
2023-04-07T02:24:44.004Z,100.00
2023-04-07T02:27:12.454Z,100.00
2023-04-07T02:29:40.947Z,100.00
2023-04-07T02:32:09.913Z,100.00
2023-04-07T02:34:38.613Z,100.00
2023-04-07T02:37:10.960Z,100.00
2023-04-07T02:39:40.626Z,100.00
2023-04-07T02:42:08.828Z,100.00
2023-04-07T02:44:37.417Z,100.00
2023-04-07T02:47:06.042Z,100.00
2023-04-07T02:49:34.918Z,100.00
2023-04-07T02:52:03.127Z,100.00
2023-04-07T02:54:31.851Z,100.00
2023-04-07T02:57:01.320Z,100.00
2023-04-07T02:59:32.004Z,100.00
2023-04-07T03:02:00.840Z,100.00
2023-04-07T03:04:31.916Z,100.00
2023-04-07T03:07:01.793Z,100.00
2023-04-07T03:09:32.828Z,100.00
2023-04-07T03:12:02.400Z,100.00
2023-04-07T03:14:34.257Z,100.00
2023-04-07T03:17:11.723Z,100.00
2023-04-07T03:19:40.628Z,100.00
2023-04-07T03:22:09.225Z,100.00
2023-04-07T03:24:41.383Z,100.00
2023-04-07T03:27:09.616Z,100.00
2023-04-07T03:29:42.379Z,100.00
2023-04-07T03:32:12.159Z,100.00
2023-04-07T03:34:40.898Z,100.00
2023-04-07T03:37:09.728Z,100.00
2023-04-07T03:39:39.430Z,100.00
2023-04-07T03:42:17.082Z,100.00
2023-04-07T03:44:46.444Z,100.00
2023-04-07T03:47:14.773Z,100.00
2023-04-07T03:49:42.984Z,100.00
2023-04-07T03:52:12.346Z,100.00
2023-04-07T03:54:44.610Z,100.00
2023-04-07T03:57:13.032Z,100.00
2023-04-07T03:59:47.157Z,100.00
2023-04-07T04:02:16.166Z,100.00
2023-04-07T04:04:44.701Z,100.00
2023-04-07T04:07:14.086Z,100.00
2023-04-07T04:09:50.127Z,100.00
2023-04-07T04:12:18.735Z,100.00
2023-04-07T04:14:55.594Z,100.00
2023-04-07T04:17:25.510Z,100.00
2023-04-07T04:19:55.459Z,100.00
2023-04-07T04:22:28.521Z,100.00
2023-04-07T04:24:59.639Z,100.00
2023-04-07T04:27:35.881Z,100.00
2023-04-07T04:30:08.473Z,100.00
2023-04-07T04:32:50.699Z,100.00
2023-04-07T04:35:26.218Z,100.00
2023-04-07T04:38:07.452Z,100.00
2023-04-07T04:40:37.986Z,100.00
2023-04-07T04:43:07.367Z,100.00
2023-04-07T04:45:36.969Z,100.00
2023-04-07T04:48:07.698Z,100.00
2023-04-07T04:50:36.624Z,100.00
2023-04-07T04:53:11.489Z,100.00
2023-04-07T04:55:52.242Z,100.00
2023-04-07T04:58:29.271Z,100.00
2023-04-07T05:01:00.502Z,100.00
2023-04-07T05:03:38.585Z,100.00
2023-04-07T05:06:13.104Z,100.00
2023-04-07T05:08:54.753Z,100.00
2023-04-07T05:11:26.758Z,100.00
2023-04-07T05:13:56.566Z,100.00
2023-04-07T05:16:29.888Z,100.00
2023-04-07T05:18:59.331Z,100.00
2023-04-07T05:21:27.840Z,100.00
2023-04-07T05:24:09.373Z,100.00
2023-04-07T05:26:39.801Z,100.00
2023-04-07T05:29:08.011Z,100.00
2023-04-07T05:31:37.862Z,100.00
2023-04-07T05:34:09.245Z,100.00
2023-04-07T05:36:40.104Z,100.00
2023-04-07T05:39:12.870Z,100.00
2023-04-07T05:41:42.544Z,100.00
2023-04-07T05:44:11.373Z,100.00
2023-04-07T05:46:42.616Z,100.00
2023-04-07T05:49:19.454Z,100.00
2023-04-07T05:51:53.334Z,100.00
2023-04-07T05:54:23.411Z,100.00
2023-04-07T05:56:54.633Z,100.00
2023-04-07T05:59:23.301Z,100.00
2023-04-07T06:01:57.743Z,100.00
2023-04-07T06:04:27.548Z,100.00
2023-04-07T06:06:56.140Z,100.00
2023-04-07T06:09:27.186Z,100.00
2023-04-07T06:11:58.098Z,100.00
2023-04-07T06:14:29.483Z,100.00
2023-04-07T06:17:04.312Z,100.00
2023-04-07T06:19:34.207Z,100.00
2023-04-07T06:22:08.622Z,100.00
2023-04-07T06:24:42.403Z,100.00
2023-04-07T06:27:18.672Z,100.00
2023-04-07T06:29:49.503Z,100.00
2023-04-07T06:32:17.812Z,100.00
2023-04-07T06:34:47.836Z,100.00
2023-04-07T06:37:18.451Z,100.00
2023-04-07T06:39:49.480Z,100.00
2023-04-07T06:42:18.009Z,100.00
2023-04-07T06:44:53.482Z,100.00
2023-04-07T06:47:22.148Z,100.00
2023-04-07T06:49:50.834Z,100.00
2023-04-07T06:52:19.137Z,100.00
2023-04-07T06:54:47.854Z,100.00
2023-04-07T06:57:20.190Z,100.00
2023-04-07T06:59:48.780Z,100.00
2023-04-07T07:02:18.066Z,100.00
2023-04-07T07:04:47.183Z,100.00
2023-04-07T07:07:18.830Z,100.00
2023-04-07T07:09:50.986Z,100.00
2023-04-07T07:12:21.900Z,100.00
2023-04-07T07:14:50.226Z,100.00
2023-04-07T07:17:18.641Z,100.00
2023-04-07T07:19:46.983Z,100.00
2023-04-07T07:22:15.891Z,100.00
2023-04-07T07:24:47.153Z,100.00
2023-04-07T07:27:16.156Z,100.00
2023-04-07T07:29:44.690Z,100.00
2023-04-07T07:32:13.431Z,100.00
2023-04-07T07:34:44.067Z,100.00
2023-04-07T07:37:13.106Z,100.00
2023-04-07T07:39:41.941Z,100.00
2023-04-07T07:42:13.257Z,100.00
2023-04-07T07:44:46.065Z,100.00
2023-04-07T07:47:15.403Z,100.00
2023-04-07T07:49:53.903Z,100.00
2023-04-07T07:52:22.336Z,100.00
2023-04-07T07:54:55.286Z,100.00
2023-04-07T07:57:25.300Z,100.00
2023-04-07T07:59:56.948Z,100.00
2023-04-07T08:02:31.030Z,100.00
2023-04-07T08:05:03.079Z,100.00
2023-04-07T08:07:40.085Z,100.00
2023-04-07T08:10:10.150Z,100.00
2023-04-07T08:12:48.363Z,100.00
2023-04-07T08:15:24.204Z,100.00
2023-04-07T08:17:54.716Z,100.00
2023-04-07T08:20:27.693Z,100.00
2023-04-07T08:22:56.083Z,100.00
2023-04-07T08:25:26.295Z,100.00
2023-04-07T08:28:03.663Z,100.00
2023-04-07T08:30:37.320Z,100.00
2023-04-07T08:33:09.878Z,99.74
2023-04-07T08:35:38.546Z,99.72
2023-04-07T08:38:11.257Z,99.75
2023-04-07T08:40:39.837Z,98.57
2023-04-07T08:43:11.716Z,97.56
2023-04-07T08:45:47.503Z,97.45
2023-04-07T08:48:20.787Z,97.27
2023-04-07T08:50:53.066Z,97.43
2023-04-07T08:53:29.742Z,97.25
2023-04-07T08:56:08.854Z,95.83
2023-04-07T08:58:51.185Z,95.26
2023-04-07T09:01:33.831Z,94.77
2023-04-07T09:04:09.448Z,94.46
2023-04-07T09:06:38.424Z,93.86
2023-04-07T09:09:06.991Z,93.62
2023-04-07T09:11:44.711Z,92.84
2023-04-07T09:14:19.182Z,91.84
2023-04-07T09:16:57.411Z,91.91
2023-04-07T09:19:27.756Z,92.19
2023-04-07T09:21:56.478Z,92.69
2023-04-07T09:24:26.618Z,92.55
2023-04-07T09:27:12.758Z,92.61
2023-04-07T09:29:43.500Z,92.70
2023-04-07T09:32:14.897Z,92.44
2023-04-07T09:34:46.633Z,92.05
2023-04-07T09:37:23.009Z,91.62
2023-04-07T09:39:55.271Z,91.93
2023-04-07T09:42:24.472Z,91.96
2023-04-07T09:44:53.755Z,91.54
2023-04-07T09:47:29.463Z,91.62
2023-04-07T09:49:59.479Z,91.90
2023-04-07T09:52:57.159Z,91.74
2023-04-07T09:55:32.227Z,92.46
2023-04-07T09:58:02.585Z,93.22
2023-04-07T10:00:40.403Z,93.21
2023-04-07T10:03:22.543Z,92.89
2023-04-07T10:05:54.778Z,92.21
2023-04-07T10:08:29.631Z,92.11
2023-04-07T10:11:08.708Z,92.29
2023-04-07T10:13:44.384Z,92.49
2023-04-07T10:16:22.069Z,92.46
2023-04-07T10:18:52.354Z,92.51
2023-04-07T10:21:24.757Z,92.78
2023-04-07T10:24:00.352Z,92.90
2023-04-07T10:26:31.512Z,92.66
2023-04-07T10:29:07.563Z,92.20
2023-04-07T10:31:38.746Z,91.40
2023-04-07T10:34:13.841Z,90.71
2023-04-07T10:37:13.546Z,89.79
2023-04-07T10:39:44.815Z,89.65
2023-04-07T10:42:38.613Z,89.36
2023-04-07T10:45:13.870Z,88.81
2023-04-07T10:48:01.791Z,88.34
2023-04-07T10:50:30.262Z,87.91
2023-04-07T10:53:08.650Z,87.07
2023-04-07T10:55:43.528Z,87.59
2023-04-07T10:58:33.031Z,87.03
2023-04-07T11:01:01.944Z,87.38
2023-04-07T11:03:33.273Z,87.38
2023-04-07T11:06:09.514Z,87.00
2023-04-07T11:08:49.491Z,85.97
2023-04-07T11:11:40.355Z,86.01
2023-04-07T11:14:37.001Z,85.66
2023-04-07T11:17:05.828Z,84.93
2023-04-07T11:19:52.252Z,83.32
2023-04-07T11:22:30.026Z,81.64
2023-04-07T11:25:00.269Z,81.15
2023-04-07T11:27:33.100Z,80.02
2023-04-07T11:30:03.031Z,79.04
2023-04-07T11:32:33.830Z,78.07
2023-04-07T11:35:09.006Z,76.94
2023-04-07T11:37:38.954Z,77.24
2023-04-07T11:40:08.326Z,77.28
2023-04-07T11:42:40.299Z,77.70
2023-04-07T11:45:19.663Z,77.89
2023-04-07T11:47:49.985Z,78.03
2023-04-07T11:50:18.286Z,78.64
2023-04-07T11:52:48.177Z,79.44
2023-04-07T11:55:24.756Z,80.04
2023-04-07T11:57:53.370Z,80.09
2023-04-07T12:00:22.618Z,79.46
2023-04-07T12:02:52.013Z,79.03
2023-04-07T12:05:25.224Z,80.22
2023-04-07T12:07:54.806Z,80.60
2023-04-07T12:10:27.302Z,80.24
2023-04-07T12:13:07.766Z,79.64
2023-04-07T12:15:38.094Z,79.27
2023-04-07T12:18:07.056Z,79.12
2023-04-07T12:20:37.503Z,78.62
2023-04-07T12:23:07.089Z,77.92
2023-04-07T12:25:35.464Z,77.62
2023-04-07T12:28:10.753Z,78.22
2023-04-07T12:30:39.371Z,78.93
2023-04-07T12:33:07.780Z,78.44
2023-04-07T12:35:37.007Z,77.77
2023-04-07T12:38:05.907Z,76.70
2023-04-07T12:40:39.750Z,75.37
2023-04-07T12:43:15.855Z,74.25
2023-04-07T12:45:44.161Z,74.06
2023-04-07T12:48:14.665Z,73.72
2023-04-07T12:50:42.891Z,73.60
2023-04-07T12:53:10.950Z,73.56
2023-04-07T12:55:39.270Z,73.77
2023-04-07T12:58:09.553Z,74.39
2023-04-07T13:00:38.444Z,74.65
2023-04-07T13:03:13.038Z,74.79
2023-04-07T13:05:41.471Z,74.21
2023-04-07T13:08:10.562Z,74.34
2023-04-07T13:10:40.194Z,74.62
2023-04-07T13:13:15.181Z,74.28
2023-04-07T13:15:46.002Z,74.20
2023-04-07T13:18:14.354Z,74.77
2023-04-07T13:20:45.333Z,74.99
2023-04-07T13:23:19.301Z,75.50
2023-04-07T13:25:48.030Z,74.89
2023-04-07T13:28:20.752Z,74.34
2023-04-07T13:30:49.055Z,74.35
2023-04-07T13:33:17.495Z,74.39
2023-04-07T13:35:46.061Z,74.77
2023-04-07T13:38:15.657Z,74.84
2023-04-07T13:40:45.075Z,74.42
2023-04-07T13:43:13.669Z,74.94
2023-04-07T13:45:42.111Z,75.51
2023-04-07T13:48:10.484Z,76.28
2023-04-07T13:50:39.291Z,76.99
2023-04-07T13:53:07.766Z,78.44
2023-04-07T13:55:37.031Z,79.42
2023-04-07T13:58:06.628Z,79.31
2023-04-07T14:00:36.148Z,79.30
2023-04-07T14:03:09.747Z,79.10
2023-04-07T14:05:38.563Z,79.38
2023-04-07T14:08:06.680Z,79.04
2023-04-07T14:10:36.373Z,79.44
2023-04-07T14:13:04.694Z,79.83
2023-04-07T14:15:34.206Z,79.38
2023-04-07T14:18:02.466Z,79.07
2023-04-07T14:20:30.826Z,78.69
2023-04-07T14:22:59.850Z,78.01
2023-04-07T14:25:28.302Z,77.18
2023-04-07T14:28:00.672Z,77.03
2023-04-07T14:30:30.964Z,77.42
2023-04-07T14:33:01.071Z,78.06
2023-04-07T14:35:33.976Z,78.66
2023-04-07T14:38:02.931Z,79.17
2023-04-07T14:40:31.938Z,78.91
2023-04-07T14:45:33.054Z,78.05
2023-04-07T14:48:03.101Z,78.50
2023-04-07T14:50:34.715Z,78.73
2023-04-07T14:53:03.632Z,79.14
2023-04-07T14:55:33.070Z,79.92
2023-04-07T14:58:01.475Z,80.84
2023-04-07T15:00:30.181Z,81.73
2023-04-07T15:03:16.675Z,82.49
2023-04-07T15:05:45.655Z,82.86
2023-04-07T15:08:14.537Z,83.19
2023-04-07T15:10:42.897Z,83.53
2023-04-07T15:13:11.381Z,83.84
2023-04-07T15:15:39.634Z,83.80
2023-04-07T15:18:08.047Z,83.55
2023-04-07T15:20:36.366Z,83.50
2023-04-07T15:23:04.755Z,83.31
2023-04-07T15:25:33.220Z,82.91
2023-04-07T15:28:01.610Z,83.07
2023-04-07T15:30:29.923Z,83.28
2023-04-07T15:33:00.455Z,83.78
2023-04-07T15:35:29.810Z,84.43
2023-04-07T15:37:58.144Z,84.79
2023-04-07T15:40:26.342Z,84.59
2023-04-07T15:42:55.605Z,84.26
2023-04-07T15:45:24.088Z,84.92
2023-04-07T15:47:53.230Z,85.08
2023-04-07T15:50:22.091Z,85.45
2023-04-07T15:52:50.866Z,85.15
2023-04-07T15:55:19.613Z,85.48
2023-04-07T15:57:48.269Z,85.46
2023-04-07T16:00:18.186Z,85.83
2023-04-07T16:02:57.780Z,85.35
2023-04-07T16:05:26.120Z,85.45
2023-04-07T16:07:54.345Z,85.47
2023-04-07T16:10:23.059Z,85.73
2023-04-07T16:12:52.754Z,86.53
2023-04-07T16:15:36.498Z,87.02
2023-04-07T16:18:10.779Z,88.07
2023-04-07T16:20:41.829Z,88.78
2023-04-07T16:23:10.892Z,88.43
2023-04-07T16:25:39.673Z,89.01
2023-04-07T16:28:08.114Z,89.52
2023-04-07T16:30:37.691Z,90.16
2023-04-07T16:33:16.261Z,89.55
2023-04-07T16:35:44.550Z,89.44
2023-04-07T16:38:13.804Z,89.33
2023-04-07T16:41:03.175Z,89.55
2023-04-07T16:43:37.871Z,90.15
2023-04-07T16:46:10.809Z,90.72
2023-04-07T16:48:39.063Z,90.82
2023-04-07T16:51:07.482Z,91.08
2023-04-07T16:57:00.467Z,91.09
2023-04-07T16:59:35.690Z,90.21
2023-04-07T17:02:16.958Z,90.22
2023-04-07T17:04:46.231Z,90.03
2023-04-07T17:07:15.208Z,89.76
2023-04-07T17:09:43.903Z,89.83
2023-04-07T17:12:13.765Z,89.59
2023-04-07T17:14:42.285Z,88.88
2023-04-07T17:17:10.698Z,88.32
2023-04-07T17:19:39.976Z,88.72
2023-04-07T17:22:08.278Z,88.60
2023-04-07T17:24:37.800Z,88.36
2023-04-07T17:27:06.221Z,88.04
2023-04-07T17:29:36.222Z,88.13
2023-04-07T17:32:04.910Z,87.80
2023-04-07T17:34:33.336Z,87.00
2023-04-07T17:37:01.569Z,86.57
2023-04-07T17:39:29.875Z,86.19
2023-04-07T17:41:58.353Z,85.89
2023-04-07T17:44:27.447Z,85.49
2023-04-07T17:46:55.963Z,85.19
2023-04-07T17:49:25.123Z,85.37
2023-04-07T17:51:54.255Z,84.71
2023-04-07T17:54:22.630Z,83.96
2023-04-07T17:56:50.904Z,84.00
2023-04-07T17:59:19.215Z,84.86
2023-04-07T18:01:51.778Z,85.78
2023-04-07T18:04:21.524Z,85.85
2023-04-07T18:06:50.330Z,85.61
2023-04-07T18:09:18.513Z,85.45
2023-04-07T18:11:49.370Z,85.34
2023-04-07T18:14:19.304Z,85.17
2023-04-07T18:16:48.263Z,84.84
2023-04-07T18:19:18.614Z,84.68
2023-04-07T18:21:47.406Z,84.77
2023-04-07T18:24:17.434Z,84.79
2023-04-07T18:26:46.139Z,85.05
2023-04-07T18:29:15.007Z,85.16
2023-04-07T18:31:43.577Z,85.54
2023-04-07T18:34:12.106Z,85.88
2023-04-07T18:36:43.147Z,86.04
2023-04-07T18:39:11.382Z,85.10
2023-04-07T18:41:44.579Z,85.03
2023-04-07T18:44:13.249Z,85.33
2023-04-07T18:46:42.094Z,86.01
2023-04-07T18:49:10.486Z,86.70
2023-04-07T18:51:39.175Z,87.27
2023-04-07T18:54:07.390Z,87.87
2023-04-07T18:56:35.676Z,88.64
2023-04-07T18:59:03.938Z,89.08
2023-04-07T19:01:34.475Z,89.42
2023-04-07T19:04:05.022Z,89.86
2023-04-07T19:06:33.492Z,90.46
2023-04-07T19:09:04.286Z,90.95
2023-04-07T19:11:32.882Z,91.63
2023-04-07T19:14:01.130Z,91.69
2023-04-07T19:16:29.780Z,92.36
2023-04-07T19:18:58.150Z,92.76
2023-04-07T19:21:27.720Z,93.10
2023-04-07T19:23:59.863Z,93.44
2023-04-07T19:26:29.660Z,93.54
2023-04-07T19:28:57.749Z,94.32
2023-04-07T19:31:26.191Z,94.66
2023-04-07T19:33:54.408Z,95.22
2023-04-07T19:36:22.627Z,95.51
2023-04-07T19:38:51.671Z,95.63
2023-04-07T19:41:21.394Z,95.72
2023-04-07T19:43:50.722Z,96.23
2023-04-07T19:46:19.057Z,96.37
2023-04-07T19:48:48.195Z,96.75
2023-04-07T19:51:17.458Z,97.04
2023-04-07T19:53:47.672Z,97.32
2023-04-07T19:56:17.357Z,97.20
2023-04-07T19:58:45.433Z,97.67
2023-04-07T20:01:18.162Z,97.91
2023-04-07T20:03:47.001Z,98.11
2023-04-07T20:06:15.652Z,98.05
2023-04-07T20:08:45.013Z,97.46
2023-04-07T20:11:13.577Z,97.38
2023-04-07T20:13:43.947Z,97.24
2023-04-07T20:16:14.268Z,97.48
2023-04-07T20:18:43.191Z,97.33
2023-04-07T20:21:13.525Z,97.19
2023-04-07T20:23:42.385Z,96.74
2023-04-07T20:26:10.594Z,96.91
2023-04-07T20:28:41.694Z,97.31
2023-04-07T20:31:10.041Z,97.43
2023-04-07T20:33:38.283Z,97.29
2023-04-07T20:36:07.166Z,97.74
2023-04-07T20:38:35.587Z,98.88
2023-04-07T20:41:04.695Z,99.30
2023-04-07T20:43:34.409Z,99.05
2023-04-07T20:46:02.727Z,98.88
2023-04-07T20:48:32.887Z,99.03
2023-04-07T20:51:01.690Z,99.28
2023-04-07T20:53:29.961Z,99.57
2023-04-07T20:55:59.480Z,99.86
2023-04-07T20:58:27.768Z,99.72
2023-04-07T21:01:00.840Z,99.66
2023-04-07T21:03:31.091Z,99.79
2023-04-07T21:05:59.662Z,99.53
2023-04-07T21:08:31.751Z,99.67
2023-04-07T21:11:01.677Z,99.85
2023-04-07T21:13:30.455Z,100.00
2023-04-07T21:16:03.425Z,99.63
2023-04-07T21:18:33.564Z,99.82
2023-04-07T21:21:02.403Z,99.55
2023-04-07T21:23:32.730Z,99.63
2023-04-07T21:26:02.335Z,99.73
2023-04-07T21:28:35.429Z,99.61
2023-04-07T21:31:04.606Z,99.27
2023-04-07T21:33:33.210Z,99.47
2023-04-07T21:36:02.454Z,100.00
2023-04-07T21:38:31.691Z,99.90
2023-04-07T21:41:00.111Z,99.98
2023-04-07T21:43:29.250Z,100.00
2023-04-07T21:45:57.531Z,100.00
2023-04-07T21:48:25.795Z,100.00
2023-04-07T21:50:53.983Z,100.00
2023-04-07T21:53:22.729Z,100.00
2023-04-07T21:55:52.023Z,100.00
2023-04-07T21:58:23.713Z,100.00
2023-04-07T22:00:53.443Z,100.00
2023-04-07T22:03:22.303Z,100.00
2023-04-07T22:05:51.826Z,100.00
2023-04-07T22:08:20.179Z,100.00
2023-04-07T22:10:48.257Z,100.00
2023-04-07T22:13:16.461Z,100.00
2023-04-07T22:15:44.867Z,100.00
2023-04-07T22:18:13.650Z,100.00
2023-04-07T22:20:42.062Z,100.00
2023-04-07T22:23:10.602Z,100.00
2023-04-07T22:25:39.287Z,100.00
2023-04-07T22:28:08.092Z,100.00
2023-04-07T22:30:36.256Z,100.00
2023-04-07T22:33:07.060Z,100.00
2023-04-07T22:35:36.513Z,100.00
2023-04-07T22:38:06.107Z,100.00
2023-04-07T22:40:35.381Z,100.00
2023-04-07T22:43:03.699Z,100.00
2023-04-07T22:45:32.392Z,100.00
2023-04-07T22:48:00.630Z,100.00
2023-04-07T22:50:33.829Z,100.00
2023-04-07T22:53:02.296Z,100.00
2023-04-07T22:55:30.620Z,100.00
2023-04-07T22:57:58.747Z,100.00
2023-04-07T23:00:27.066Z,100.00
2023-04-07T23:02:58.116Z,100.00
2023-04-07T23:05:27.415Z,100.00
2023-04-07T23:07:55.865Z,100.00
2023-04-07T23:10:26.167Z,100.00
2023-04-07T23:12:55.168Z,100.00
2023-04-07T23:15:23.440Z,100.00
2023-04-07T23:17:56.722Z,100.00
2023-04-07T23:20:26.124Z,100.00
2023-04-07T23:22:59.648Z,100.00
2023-04-07T23:25:28.738Z,100.00
2023-04-07T23:27:56.947Z,100.00
2023-04-07T23:30:25.199Z,100.00
2023-04-07T23:32:54.396Z,100.00
2023-04-07T23:35:22.573Z,100.00
2023-04-07T23:37:51.904Z,100.00
2023-04-07T23:40:20.318Z,100.00
2023-04-07T23:42:48.874Z,100.00
2023-04-07T23:45:18.740Z,100.00
2023-04-07T23:47:50.396Z,100.00
2023-04-07T23:50:18.681Z,100.00
2023-04-07T23:52:47.053Z,100.00
2023-04-07T23:55:15.172Z,100.00
2023-04-07T23:57:43.330Z,100.00
